createdAt,value
2018-12-04T00:00:59.943Z,9.69
2018-12-04T00:03:29.227Z,9.67
2018-12-04T00:05:58.495Z,9.66
2018-12-04T00:08:27.818Z,9.67
2018-12-04T00:10:57.097Z,9.67
2018-12-04T00:13:26.406Z,9.68
2018-12-04T00:15:55.700Z,9.67
2018-12-04T00:18:24.987Z,9.64
2018-12-04T00:20:54.260Z,9.58
2018-12-04T00:23:23.606Z,9.58
2018-12-04T00:25:52.869Z,9.61
2018-12-04T00:28:22.144Z,9.59
2018-12-04T00:30:51.429Z,9.59
2018-12-04T00:33:20.708Z,9.57
2018-12-04T00:35:50.003Z,9.58
2018-12-04T00:38:19.277Z,9.58
2018-12-04T00:40:48.574Z,9.51
2018-12-04T00:43:17.857Z,9.50
2018-12-04T00:45:47.150Z,9.47
2018-12-04T00:48:16.428Z,9.41
2018-12-04T00:50:45.701Z,9.40
2018-12-04T00:53:14.964Z,9.41
2018-12-04T00:55:44.255Z,9.44
2018-12-04T00:58:13.532Z,9.47
2018-12-04T01:00:42.809Z,9.47
2018-12-04T01:03:12.081Z,9.46
2018-12-04T01:05:41.359Z,9.48
2018-12-04T01:08:10.626Z,9.49
2018-12-04T01:10:39.904Z,9.47
2018-12-04T01:13:09.169Z,9.43
2018-12-04T01:15:38.451Z,9.41
2018-12-04T01:18:07.755Z,9.39
2018-12-04T01:20:37.078Z,9.40
2018-12-04T01:23:06.343Z,9.36
2018-12-04T01:25:35.622Z,9.35
2018-12-04T01:28:04.913Z,9.33
2018-12-04T01:30:34.192Z,9.30
2018-12-04T01:33:03.471Z,9.27
2018-12-04T01:35:32.773Z,9.26
2018-12-04T01:38:02.036Z,9.28
2018-12-04T01:40:31.333Z,9.28
2018-12-04T01:43:00.611Z,9.29
2018-12-04T01:45:29.886Z,9.31
2018-12-04T01:47:59.147Z,9.32
2018-12-04T01:50:28.428Z,9.35
2018-12-04T01:52:57.712Z,9.34
2018-12-04T01:55:26.996Z,9.35
2018-12-04T01:57:56.258Z,9.33
2018-12-04T02:00:25.548Z,9.33
2018-12-04T02:02:54.821Z,9.31
2018-12-04T02:05:24.215Z,9.28
2018-12-04T02:07:53.798Z,9.21
2018-12-04T02:10:23.083Z,9.18
2018-12-04T02:12:52.370Z,9.19
2018-12-04T02:15:21.640Z,9.16
2018-12-04T02:17:50.934Z,9.11
2018-12-04T02:20:20.249Z,9.07
2018-12-04T02:22:49.540Z,9.06
2018-12-04T02:25:18.815Z,9.04
2018-12-04T02:27:48.154Z,9.00
2018-12-04T02:30:17.428Z,8.92
2018-12-04T02:32:46.711Z,8.91
2018-12-04T02:35:15.980Z,8.91
2018-12-04T02:37:45.268Z,8.92
2018-12-04T02:40:14.538Z,8.93
2018-12-04T02:42:43.833Z,8.91
2018-12-04T02:45:13.093Z,8.88
2018-12-04T02:47:42.376Z,8.86
2018-12-04T02:50:11.664Z,8.88
2018-12-04T02:52:40.955Z,8.86
2018-12-04T02:55:10.229Z,8.88
2018-12-04T02:57:39.518Z,8.90
2018-12-04T03:00:09.466Z,8.91
2018-12-04T03:02:38.749Z,8.93
2018-12-04T03:05:08.028Z,8.96
2018-12-04T03:07:37.332Z,8.95
2018-12-04T03:10:07.437Z,8.95
2018-12-04T03:12:36.709Z,8.93
2018-12-04T03:15:06.065Z,8.89
2018-12-04T03:17:35.335Z,8.89
2018-12-04T03:20:05.058Z,8.85
2018-12-04T03:22:34.318Z,8.85
2018-12-04T03:25:03.597Z,8.82
2018-12-04T03:27:32.839Z,8.82
2018-12-04T03:30:02.120Z,8.80
2018-12-04T03:32:31.391Z,8.78
2018-12-04T03:35:00.662Z,8.76
2018-12-04T03:37:29.930Z,8.75
2018-12-04T03:39:59.205Z,8.73
2018-12-04T03:42:28.505Z,8.71
2018-12-04T03:44:57.786Z,8.70
2018-12-04T03:47:27.057Z,8.66
2018-12-04T03:49:56.351Z,8.65
2018-12-04T03:52:25.609Z,8.64
2018-12-04T03:54:54.900Z,8.63
2018-12-04T03:57:24.167Z,8.62
2018-12-04T03:59:53.434Z,8.61
2018-12-04T04:02:22.706Z,8.60
2018-12-04T04:04:52.024Z,8.59
2018-12-04T04:07:21.325Z,8.61
2018-12-04T04:09:50.609Z,8.61
2018-12-04T04:12:19.869Z,8.61
2018-12-04T04:14:49.183Z,8.59
2018-12-04T04:17:18.444Z,8.59
2018-12-04T04:19:47.745Z,8.58
2018-12-04T04:22:17.046Z,8.56
2018-12-04T04:24:46.319Z,8.56
2018-12-04T04:27:15.597Z,8.57
2018-12-04T04:29:44.883Z,8.54
2018-12-04T04:32:14.169Z,8.51
2018-12-04T04:34:43.451Z,8.52
2018-12-04T04:37:12.735Z,8.50
2018-12-04T04:39:42.005Z,8.51
2018-12-04T04:42:11.292Z,8.50
2018-12-04T04:44:40.582Z,8.50
2018-12-04T04:47:09.874Z,8.42
2018-12-04T04:49:39.147Z,8.39
2018-12-04T04:52:08.449Z,8.35
2018-12-04T04:54:37.725Z,8.33
2018-12-04T04:57:07.039Z,8.30
2018-12-04T04:59:36.310Z,8.30
2018-12-04T05:02:05.584Z,8.30
2018-12-04T05:04:34.883Z,8.30
2018-12-04T05:07:04.180Z,8.27
2018-12-04T05:09:33.461Z,8.21
2018-12-04T05:12:02.770Z,8.19
2018-12-04T05:14:32.038Z,8.18
2018-12-04T05:17:01.326Z,8.16
2018-12-04T05:19:30.601Z,8.09
2018-12-04T05:21:59.884Z,8.05
2018-12-04T05:24:29.171Z,8.06
2018-12-04T05:26:58.471Z,8.05
2018-12-04T05:29:27.750Z,8.02
2018-12-04T05:31:57.046Z,8.03
2018-12-04T05:34:26.355Z,8.01
2018-12-04T05:36:55.630Z,7.98
2018-12-04T05:39:24.917Z,7.94
2018-12-04T05:41:54.193Z,7.91
2018-12-04T05:44:23.485Z,7.89
2018-12-04T05:46:52.776Z,7.85
2018-12-04T05:49:22.074Z,7.83
2018-12-04T05:51:51.370Z,7.84
2018-12-04T05:54:20.663Z,7.83
2018-12-04T05:56:49.934Z,7.78
2018-12-04T05:59:19.253Z,7.73
2018-12-04T06:01:48.527Z,7.70
2018-12-04T06:04:17.841Z,7.68
2018-12-04T06:06:47.111Z,7.67
2018-12-04T06:09:16.437Z,7.64
2018-12-04T06:11:45.712Z,7.63
2018-12-04T06:14:15.031Z,7.63
2018-12-04T06:16:44.311Z,7.63
2018-12-04T06:19:13.648Z,7.63
2018-12-04T06:21:42.954Z,7.62
2018-12-04T06:24:12.256Z,7.66
2018-12-04T06:26:41.559Z,7.68
2018-12-04T06:29:10.867Z,7.71
2018-12-04T06:31:40.191Z,7.70
2018-12-04T06:34:09.492Z,7.69
2018-12-04T06:36:38.831Z,7.67
2018-12-04T06:39:09.072Z,7.64
2018-12-04T06:41:38.367Z,7.66
2018-12-04T06:44:07.697Z,7.68
2018-12-04T06:46:37.002Z,7.68
2018-12-04T06:49:06.317Z,7.63
2018-12-04T06:51:35.635Z,7.59
2018-12-04T06:54:04.929Z,7.53
2018-12-04T06:56:34.220Z,7.54
2018-12-04T06:59:03.541Z,7.60
2018-12-04T07:01:32.818Z,7.65
2018-12-04T07:04:02.131Z,7.68
2018-12-04T07:06:31.438Z,7.72
2018-12-04T07:09:00.746Z,7.73
2018-12-04T07:11:30.024Z,7.75
2018-12-04T07:13:59.304Z,7.74
2018-12-04T07:16:28.606Z,7.74
2018-12-04T07:18:57.918Z,7.69
2018-12-04T07:21:27.189Z,7.66
2018-12-04T07:23:56.468Z,7.67
2018-12-04T07:26:25.753Z,7.66
2018-12-04T07:28:55.029Z,7.63
2018-12-04T07:31:24.309Z,7.61
2018-12-04T07:33:53.614Z,7.60
2018-12-04T07:36:22.910Z,7.57
2018-12-04T07:38:52.196Z,7.56
2018-12-04T07:41:21.473Z,7.54
2018-12-04T07:43:50.988Z,7.54
2018-12-04T07:46:20.276Z,7.51
2018-12-04T07:48:49.553Z,7.46
2018-12-04T07:51:18.840Z,7.43
2018-12-04T07:53:48.146Z,7.44
2018-12-04T07:56:17.414Z,7.44
2018-12-04T07:58:46.701Z,7.44
2018-12-04T08:01:15.979Z,7.46
2018-12-04T08:03:45.245Z,7.50
2018-12-04T08:06:14.522Z,7.52
2018-12-04T08:08:43.788Z,7.54
2018-12-04T08:11:13.071Z,7.60
2018-12-04T08:13:42.443Z,7.62
2018-12-04T08:16:11.733Z,7.67
2018-12-04T08:18:40.999Z,7.66
2018-12-04T08:21:10.373Z,7.65
2018-12-04T08:23:39.647Z,7.62
2018-12-04T08:26:09.003Z,7.52
2018-12-04T08:28:38.263Z,7.48
2018-12-04T08:31:07.600Z,7.46
2018-12-04T08:33:36.880Z,7.44
2018-12-04T08:36:06.162Z,7.42
2018-12-04T08:38:35.504Z,7.41
2018-12-04T08:41:04.787Z,7.37
2018-12-04T08:43:34.048Z,7.36
2018-12-04T08:46:03.323Z,7.36
2018-12-04T08:48:32.592Z,7.38
2018-12-04T08:51:01.874Z,7.44
2018-12-04T08:53:31.149Z,7.53
2018-12-04T08:56:00.438Z,7.62
2018-12-04T08:58:29.702Z,7.71
2018-12-04T09:00:58.988Z,7.80
2018-12-04T09:03:28.282Z,7.92
2018-12-04T09:05:57.565Z,8.02
2018-12-04T09:08:26.844Z,8.13
2018-12-04T09:10:56.127Z,8.24
2018-12-04T09:13:25.569Z,8.39
2018-12-04T09:15:54.853Z,8.52
2018-12-04T09:18:24.123Z,8.68
2018-12-04T09:20:53.520Z,8.85
2018-12-04T09:23:22.854Z,9.00
2018-12-04T09:25:52.127Z,9.13
2018-12-04T09:28:21.535Z,9.14
2018-12-04T09:30:50.847Z,9.12
2018-12-04T09:33:20.143Z,9.13
2018-12-04T09:35:49.454Z,9.05
2018-12-04T09:38:18.738Z,8.90
2018-12-04T09:40:48.020Z,8.76
2018-12-04T09:43:17.295Z,8.69
2018-12-04T09:45:46.590Z,8.68
2018-12-04T09:48:15.859Z,8.77
2018-12-04T09:50:45.127Z,8.86
2018-12-04T09:53:14.427Z,9.00
2018-12-04T09:55:43.742Z,9.12
2018-12-04T09:58:13.011Z,9.25
2018-12-04T10:00:42.293Z,9.40
2018-12-04T10:03:11.651Z,9.46
2018-12-04T10:05:40.927Z,9.46
2018-12-04T10:08:10.219Z,9.55
2018-12-04T10:10:39.522Z,9.64
2018-12-04T10:13:08.804Z,9.76
2018-12-04T10:15:38.073Z,9.73
2018-12-04T10:18:07.351Z,9.80
2018-12-04T10:20:36.762Z,9.82
2018-12-04T10:23:06.160Z,9.84
2018-12-04T10:28:25.038Z,9.76
2018-12-04T10:31:13.033Z,9.70
2018-12-04T10:33:42.357Z,9.69
2018-12-04T10:36:11.636Z,9.75
2018-12-04T10:38:40.978Z,9.75
2018-12-04T10:41:10.256Z,9.78
2018-12-04T10:43:39.521Z,9.91
2018-12-04T10:46:08.818Z,10.22
2018-12-04T10:48:38.135Z,10.29
2018-12-04T10:51:07.427Z,10.18
2018-12-04T10:53:36.733Z,10.10
2018-12-04T10:56:06.029Z,10.04
2018-12-04T10:58:35.325Z,10.01
2018-12-04T11:01:23.318Z,10.02
2018-12-04T11:03:52.615Z,9.94
2018-12-04T11:06:21.878Z,9.85
2018-12-04T11:08:51.163Z,9.67
2018-12-04T11:11:20.456Z,9.44
2018-12-04T11:13:49.756Z,9.16
2018-12-04T11:16:19.031Z,8.95
2018-12-04T11:18:48.822Z,8.79
2018-12-04T11:21:18.127Z,8.60
2018-12-04T11:23:47.479Z,8.53
2018-12-04T11:26:16.772Z,8.41
2018-12-04T11:28:46.088Z,8.35
2018-12-04T11:31:15.388Z,8.32
2018-12-04T11:33:44.700Z,8.30
2018-12-04T11:36:21.451Z,8.34
2018-12-04T11:38:50.814Z,8.49
2018-12-04T11:41:20.077Z,8.65
2018-12-04T11:43:49.361Z,8.79
2018-12-04T11:46:18.615Z,8.96
2018-12-04T11:48:47.896Z,9.13
2018-12-04T11:51:17.144Z,9.30
2018-12-04T11:53:46.420Z,9.46
2018-12-04T11:56:15.691Z,9.50
2018-12-04T11:58:44.963Z,9.56
2018-12-04T12:01:27.124Z,9.55
2018-12-04T12:03:56.442Z,9.46
2018-12-04T12:06:25.718Z,9.41
2018-12-04T12:08:55.098Z,9.43
2018-12-04T12:11:24.575Z,9.31
2018-12-04T12:13:53.939Z,9.28
2018-12-04T12:16:23.601Z,9.26
2018-12-04T12:19:11.925Z,9.26
2018-12-04T12:21:41.417Z,9.36
2018-12-04T12:24:10.692Z,9.49
2018-12-04T12:26:40.153Z,9.56
2018-12-04T12:29:09.470Z,9.66
2018-12-04T12:31:38.900Z,9.76
2018-12-04T12:34:08.212Z,9.74
2018-12-04T12:36:37.740Z,9.71
2018-12-04T12:39:08.681Z,9.66
2018-12-04T12:41:38.052Z,9.66
2018-12-04T12:44:07.460Z,9.67
2018-12-04T12:46:36.905Z,9.64
2018-12-04T12:49:06.228Z,9.59
2018-12-04T12:51:35.598Z,9.54
2018-12-04T12:54:04.921Z,9.50
2018-12-04T12:56:34.279Z,9.47
2018-12-04T13:04:26.922Z,10.90
2018-12-04T13:09:31.514Z,11.85
2018-12-04T13:12:01.019Z,12.13
2018-12-04T13:14:30.315Z,12.17
2018-12-04T13:19:34.207Z,11.49
2018-12-04T13:22:03.536Z,11.78
2018-12-04T13:24:32.831Z,12.21
2018-12-04T13:27:02.270Z,12.56
2018-12-04T13:29:31.553Z,12.23
2018-12-04T13:32:00.934Z,11.69
2018-12-04T13:34:30.308Z,11.20
2018-12-04T13:36:59.597Z,10.83
2018-12-04T13:39:28.975Z,10.49
2018-12-04T13:41:58.445Z,10.24
2018-12-04T13:44:27.744Z,10.09
2018-12-04T13:46:57.018Z,9.96
2018-12-04T13:49:26.292Z,9.84
2018-12-04T13:51:55.589Z,9.78
2018-12-04T13:54:24.869Z,9.66
2018-12-04T13:56:54.172Z,9.62
2018-12-04T13:59:23.463Z,9.57
2018-12-04T14:01:52.741Z,9.51
2018-12-04T14:09:45.459Z,10.09
2018-12-04T14:14:50.162Z,11.06
2018-12-04T14:17:19.652Z,11.09
2018-12-04T14:19:49.092Z,10.69
2018-12-04T14:22:18.393Z,10.42
2018-12-04T14:24:47.699Z,10.15
2018-12-04T14:27:17.119Z,9.95
2018-12-04T14:29:46.399Z,9.78
2018-12-04T14:32:15.716Z,9.69
2018-12-04T14:34:45.007Z,9.61
2018-12-04T14:37:14.285Z,9.50
2018-12-04T14:39:43.575Z,9.41
2018-12-04T14:42:12.870Z,9.33
2018-12-04T14:44:42.164Z,9.26
2018-12-04T14:47:11.567Z,9.20
2018-12-04T14:49:40.825Z,9.11
2018-12-04T14:52:10.138Z,9.02
2018-12-04T14:54:39.431Z,8.95
2018-12-04T14:57:08.765Z,8.88
2018-12-04T14:59:38.065Z,8.80
2018-12-04T15:02:07.409Z,8.73
2018-12-04T15:04:36.741Z,8.70
2018-12-04T15:07:06.049Z,8.64
2018-12-04T15:09:35.310Z,8.61
2018-12-04T15:12:04.592Z,8.57
2018-12-04T15:14:33.937Z,8.53
2018-12-04T15:17:03.167Z,8.54
2018-12-04T15:19:32.543Z,8.50
2018-12-04T15:22:01.859Z,8.46
2018-12-04T15:24:31.179Z,8.43
2018-12-04T15:27:00.501Z,8.38
2018-12-04T15:29:29.802Z,8.36
2018-12-04T15:31:59.075Z,8.33
2018-12-04T15:34:28.423Z,8.28
2018-12-04T15:36:57.734Z,8.21
2018-12-04T15:39:26.982Z,8.17
2018-12-04T15:41:56.311Z,8.12
2018-12-04T15:44:25.632Z,8.07
2018-12-04T15:46:54.916Z,8.06
2018-12-04T15:49:24.244Z,8.05
2018-12-04T15:51:53.485Z,8.07
2018-12-04T15:54:22.838Z,8.05
2018-12-04T15:56:52.087Z,8.03
2018-12-04T16:01:58.837Z,8.05
2018-12-04T16:04:28.124Z,8.05
2018-12-04T16:06:57.409Z,8.04
2018-12-04T16:09:26.721Z,8.02
2018-12-04T16:11:55.997Z,8.00
2018-12-04T16:14:25.289Z,7.98
2018-12-04T16:16:54.576Z,7.97
2018-12-04T16:19:23.872Z,7.97
2018-12-04T16:21:53.189Z,7.96
2018-12-04T16:24:22.583Z,7.96
2018-12-04T16:26:51.902Z,7.94
2018-12-04T16:29:21.173Z,7.92
2018-12-04T16:31:50.459Z,7.91
2018-12-04T16:34:19.783Z,7.86
2018-12-04T16:36:49.084Z,7.84
2018-12-04T16:39:18.362Z,7.80
2018-12-04T16:41:47.678Z,7.79
2018-12-04T16:44:16.961Z,7.77
2018-12-04T16:46:46.256Z,7.75
2018-12-04T16:49:15.584Z,7.73
2018-12-04T16:51:44.911Z,7.72
2018-12-04T16:54:14.212Z,7.68
2018-12-04T16:56:43.490Z,7.67
2018-12-04T16:59:12.767Z,7.64
2018-12-04T17:01:42.054Z,7.61
2018-12-04T17:04:11.349Z,7.59
2018-12-04T17:06:40.613Z,7.56
2018-12-04T17:09:10.014Z,7.54
2018-12-04T17:11:39.275Z,7.51
2018-12-04T17:14:08.531Z,7.46
2018-12-04T17:16:37.810Z,7.43
2018-12-04T17:21:56.341Z,7.40
2018-12-04T17:24:25.607Z,7.34
2018-12-04T17:26:54.911Z,7.31
2018-12-04T17:29:24.327Z,7.31
2018-12-04T17:31:53.625Z,7.29
2018-12-04T17:34:22.918Z,7.27
2018-12-04T17:36:52.349Z,7.27
2018-12-04T17:39:21.750Z,7.25
2018-12-04T17:41:51.026Z,7.23
2018-12-04T17:44:20.294Z,7.21
2018-12-04T17:46:49.629Z,7.18
2018-12-04T17:49:18.905Z,7.17
2018-12-04T17:51:48.280Z,7.13
2018-12-04T17:54:17.559Z,7.11
2018-12-04T17:56:46.842Z,7.08
2018-12-04T17:59:16.169Z,7.04
2018-12-04T18:01:45.392Z,7.00
2018-12-04T18:04:14.657Z,6.98
2018-12-04T18:06:43.957Z,6.95
2018-12-04T18:09:13.221Z,6.94
2018-12-04T18:11:42.524Z,6.90
2018-12-04T18:14:11.783Z,6.85
2018-12-04T18:16:41.051Z,6.84
2018-12-04T18:19:10.307Z,6.80
2018-12-04T18:21:39.625Z,6.77
2018-12-04T18:24:08.908Z,6.76
2018-12-04T18:26:38.198Z,6.75
2018-12-04T18:29:07.499Z,6.74
2018-12-04T18:31:36.802Z,6.72
2018-12-04T18:34:06.052Z,6.73
2018-12-04T18:36:54.924Z,6.72
2018-12-04T18:39:24.196Z,6.71
2018-12-04T18:41:53.477Z,6.69
2018-12-04T18:44:23.102Z,6.66
2018-12-04T18:46:52.547Z,6.64
2018-12-04T18:49:21.812Z,6.66
2018-12-04T18:51:51.158Z,6.64
2018-12-04T18:54:20.413Z,6.63
2018-12-04T18:56:49.765Z,6.63
2018-12-04T18:59:19.048Z,6.62
2018-12-04T19:01:48.335Z,6.60
2018-12-04T19:04:17.632Z,6.59
2018-12-04T19:06:46.894Z,6.58
2018-12-04T19:09:16.174Z,6.57
2018-12-04T19:11:45.591Z,6.54
2018-12-04T19:14:15.025Z,6.54
2018-12-04T19:16:44.282Z,6.53
2018-12-04T19:19:13.572Z,6.54
2018-12-04T19:21:42.838Z,6.51
2018-12-04T19:24:12.205Z,6.50
2018-12-04T19:26:41.464Z,6.48
2018-12-04T19:29:10.787Z,6.46
2018-12-04T19:31:40.062Z,6.46
2018-12-04T19:34:09.390Z,6.46
2018-12-04T19:36:38.671Z,6.43
2018-12-04T19:39:09.969Z,6.44
2018-12-04T19:41:39.261Z,6.45
2018-12-04T19:44:08.569Z,6.45
2018-12-04T19:46:37.836Z,6.43
2018-12-04T19:49:07.111Z,6.39
2018-12-04T19:51:36.369Z,6.35
2018-12-04T19:54:05.639Z,6.32
2018-12-04T19:56:34.896Z,6.31
2018-12-04T19:59:04.175Z,6.33
2018-12-04T20:01:33.429Z,6.32
2018-12-04T20:04:02.709Z,6.33
2018-12-04T20:06:32.060Z,6.33
2018-12-04T20:11:58.422Z,6.26
2018-12-04T20:14:27.722Z,6.24
2018-12-04T20:16:56.988Z,6.18
2018-12-04T20:19:26.273Z,6.15
2018-12-04T20:21:55.573Z,6.15
2018-12-04T20:24:24.875Z,6.15
2018-12-04T20:26:54.133Z,6.15
2018-12-04T20:29:23.443Z,6.11
2018-12-04T20:31:52.747Z,6.07
2018-12-04T20:36:57.718Z,6.00
2018-12-04T20:39:27.001Z,5.99
2018-12-04T20:41:56.266Z,5.93
2018-12-04T20:44:25.548Z,5.90
2018-12-04T20:46:54.820Z,5.86
2018-12-04T20:49:24.082Z,5.83
2018-12-04T20:51:53.347Z,5.82
2018-12-04T20:54:22.631Z,5.83
2018-12-04T20:57:11.525Z,5.82
2018-12-04T20:59:40.817Z,5.83
2018-12-04T21:02:10.090Z,5.89
2018-12-04T21:04:39.369Z,5.91
2018-12-04T21:07:08.658Z,5.92
2018-12-04T21:09:37.927Z,5.93
2018-12-04T21:12:07.235Z,5.92
2018-12-04T21:14:36.523Z,5.94
2018-12-04T21:17:05.815Z,5.94
2018-12-04T21:19:35.094Z,5.98
2018-12-04T21:22:04.377Z,5.97
2018-12-04T21:24:33.685Z,5.99
2018-12-04T21:27:02.979Z,6.03
2018-12-04T21:29:50.980Z,6.03
2018-12-04T21:32:40.692Z,6.04
2018-12-04T21:35:27.956Z,6.06
2018-12-04T21:38:15.972Z,6.07
2018-12-04T21:41:03.993Z,6.10
2018-12-04T21:43:52.020Z,6.12
2018-12-04T21:46:59.113Z,6.13
2018-12-04T21:49:28.402Z,6.10
2018-12-04T21:51:57.740Z,6.08
2018-12-04T21:54:26.998Z,6.10
2018-12-04T21:56:56.278Z,6.12
2018-12-04T21:59:25.542Z,6.15
2018-12-04T22:01:54.827Z,6.18
2018-12-04T22:04:24.091Z,6.21
2018-12-04T22:06:53.441Z,6.24
2018-12-04T22:09:22.719Z,6.25
2018-12-04T22:12:11.632Z,6.26
2018-12-04T22:14:40.935Z,6.26
2018-12-04T22:17:10.224Z,6.21
2018-12-04T22:19:39.497Z,6.20
2018-12-04T22:22:08.786Z,6.19
2018-12-04T22:24:38.050Z,6.21
2018-12-04T22:27:07.342Z,6.23
2018-12-04T22:29:36.619Z,6.26
2018-12-04T22:32:05.909Z,6.30
2018-12-04T22:34:35.192Z,6.33
2018-12-04T22:37:04.486Z,6.36
2018-12-04T22:39:33.744Z,6.38
2018-12-04T22:42:03.045Z,6.39
2018-12-04T22:44:32.317Z,6.38
2018-12-04T22:47:01.604Z,6.38
2018-12-04T22:49:30.872Z,6.38
2018-12-04T22:52:00.156Z,6.37
2018-12-04T22:54:29.435Z,6.35
2018-12-04T22:56:58.725Z,6.33
2018-12-04T22:59:28.006Z,6.28
2018-12-04T23:01:57.279Z,6.25
2018-12-04T23:04:26.543Z,6.23
2018-12-04T23:06:55.823Z,6.24
2018-12-04T23:09:25.121Z,6.21
2018-12-04T23:11:54.425Z,6.21
2018-12-04T23:14:23.708Z,6.21
2018-12-04T23:16:52.995Z,6.20
2018-12-04T23:19:22.267Z,6.21
2018-12-04T23:21:51.537Z,6.22
2018-12-04T23:24:20.803Z,6.22
2018-12-04T23:26:50.096Z,6.23
2018-12-04T23:29:19.381Z,6.21
2018-12-04T23:31:48.642Z,6.21
2018-12-04T23:34:17.925Z,6.24
2018-12-04T23:36:47.241Z,6.23
2018-12-04T23:39:16.538Z,6.24
2018-12-04T23:41:45.803Z,6.26
2018-12-04T23:46:50.593Z,6.31
2018-12-04T23:49:19.865Z,6.32
2018-12-04T23:51:49.152Z,6.34
2018-12-04T23:54:18.444Z,6.35
2018-12-04T23:56:47.706Z,6.38
2018-12-04T23:59:16.989Z,6.37
